Pythagoras — C6ZO4 — position and weather

sailwx.info

Track history (hours):
 
Tides and Currents Weather Stations Pressure Air Temp Water Temp Dewpoint Dewpoint Depression Visibility Wind Speed Wind Dir Waves Ship Positions

Pythagoras

Last reported at 2015-May-23 18:33 UTC. Time now 2015-May-26 01:44 UTC.
Position S 25°08' W 047°21'.

Length 190 m; draft 7.4 m.

Type: Cargo ship. MMSI: 311061300.

Date/timePositionNaut miles runAvg speedWind from/ knotsBaromVisibWave heightAir tempDewpointWater temp
2015-May-23 18:33S 25°08' W 047°21'4414.7
2015-May-23 15:33S 24°38' W 046°46'1414.4
2015-May-23 14:33S 24°27' W 046°35'1414.4
2015-May-23 13:34S 24°14' W 046°28'1413.9
2015-May-23 12:33S 24°02' W 046°21'5 4.5
2015-May-23 11:28S 23°58' W 046°17'0 0.0
2015-May-23 10:31S 23°58' W 046°17'0 0.0
2015-May-23 09:28S 23°58' W 046°17'0 0.0
2015-May-23 08:31S 23°58' W 046°17'0 0.0
2015-May-23 07:31S 23°58' W 046°17'0 0.0
2015-May-23 06:31S 23°58' W 046°17'0 0.0
2015-May-23 05:31S 23°58' W 046°17'0 0.0
2015-May-23 04:25S 23°58' W 046°17'0 0.0
2015-May-23 03:31S 23°58' W 046°17'0 0.0
2015-May-23 02:31S 23°58' W 046°17'0 0.0
2015-May-23 01:31S 23°58' W 046°17'0 0.0
2015-May-23 00:31S 23°58' W 046°17'0 0.0
2015-May-22 23:31S 23°58' W 046°17'0 0.0
2015-May-22 22:31S 23°58' W 046°17'0 0.0
2015-May-22 21:28S 23°58' W 046°17'0 0.0
2015-May-22 20:31S 23°58' W 046°17'0 0.0
2015-May-22 19:31S 23°58' W 046°17'0 0.0
2015-May-22 18:31S 23°58' W 046°17'0 0.0
2015-May-22 17:31S 23°58' W 046°17'0 0.0
2015-May-22 16:31S 23°58' W 046°17'0 0.0
2015-May-22 15:28S 23°58' W 046°17'0 0.0
2015-May-22 14:28S 23°58' W 046°17'0 0.0
2015-May-22 13:31S 23°58' W 046°17'0 0.0
2015-May-22 12:31S 23°58' W 046°17'0 0.0
2015-May-22 11:25S 23°58' W 046°17'0 0.0
2015-May-22 10:31S 23°58' W 046°17'0 0.0
2015-May-22 09:31S 23°58' W 046°17'0 0.0
2015-May-22 08:28S 23°58' W 046°17'0 0.0
2015-May-22 07:31S 23°58' W 046°17'0 0.0
2015-May-22 06:28S 23°58' W 046°17'0 0.0
2015-May-22 05:31S 23°58' W 046°17'0 0.0
2015-May-22 04:31S 23°58' W 046°17'0 0.0
2015-May-22 03:31S 23°58' W 046°17'0 0.0
2015-May-22 02:22S 23°58' W 046°17'0 0.0
2015-May-22 01:31S 23°58' W 046°17'0 0.0
2015-May-22 00:31S 23°58' W 046°17'0 0.0
2015-May-21 23:31S 23°58' W 046°17'0 0.0
2015-May-21 22:28S 23°58' W 046°17'0 0.0
2015-May-21 21:31S 23°58' W 046°17'0 0.0
2015-May-21 20:31S 23°58' W 046°17'0 0.0
2015-May-21 19:31S 23°58' W 046°17'0 0.0
2015-May-21 18:31S 23°58' W 046°17'0 0.0
2015-May-21 17:31S 23°58' W 046°17'4 3.7
2015-May-21 16:33S 24°01' W 046°20'4 4.2
2015-May-21 15:31S 24°05' W 046°21'0 0.0
2015-May-21 14:31S 24°05' W 046°21'0 0.1
2015-May-21 13:28S 24°05' W 046°21'0 0.1
2015-May-21 12:28S 24°05' W 046°21'2 2.7
2015-May-21 11:33S 24°07' W 046°22'9 8.9
2015-May-21 10:33S 24°16' W 046°19'6 6.4
2015-May-21 09:33S 24°21' W 046°15'8 8.4
2015-May-21 08:32S 24°23' W 046°06'1110.8
2015-May-21 07:33S 24°21' W 045°55'1211.3
2015-May-21 06:31S 24°18' W 045°42'  
Track history (hours):
 
Tides and Currents Weather Stations Pressure Air Temp Water Temp Dewpoint Dewpoint Depression Visibility Wind Speed Wind Dir Waves Ship Positions

Pythagoras

Last reported at 2015-May-23 18:33 UTC. Time now 2015-May-26 01:44 UTC.
Position S 25°08' W 047°21'.

Length 190 m; draft 7.4 m.

Type: Cargo ship. MMSI: 311061300.

Date/timePositionNaut miles runAvg speedWind from/ knotsBaromVisibWave heightAir tempDewpointWater temp
2015-May-23 18:33S 25°08' W 047°21'4414.7
2015-May-23 15:33S 24°38' W 046°46'1414.4
2015-May-23 14:33S 24°27' W 046°35'1414.4
2015-May-23 13:34S 24°14' W 046°28'1413.9
2015-May-23 12:33S 24°02' W 046°21'5 4.5
2015-May-23 11:28S 23°58' W 046°17'0 0.0
2015-May-23 10:31S 23°58' W 046°17'0 0.0
2015-May-23 09:28S 23°58' W 046°17'0 0.0
2015-May-23 08:31S 23°58' W 046°17'0 0.0
2015-May-23 07:31S 23°58' W 046°17'0 0.0
2015-May-23 06:31S 23°58' W 046°17'0 0.0
2015-May-23 05:31S 23°58' W 046°17'0 0.0
2015-May-23 04:25S 23°58' W 046°17'0 0.0
2015-May-23 03:31S 23°58' W 046°17'0 0.0
2015-May-23 02:31S 23°58' W 046°17'0 0.0
2015-May-23 01:31S 23°58' W 046°17'0 0.0
2015-May-23 00:31S 23°58' W 046°17'0 0.0
2015-May-22 23:31S 23°58' W 046°17'0 0.0
2015-May-22 22:31S 23°58' W 046°17'0 0.0
2015-May-22 21:28S 23°58' W 046°17'0 0.0
2015-May-22 20:31S 23°58' W 046°17'0 0.0
2015-May-22 19:31S 23°58' W 046°17'0 0.0
2015-May-22 18:31S 23°58' W 046°17'0 0.0
2015-May-22 17:31S 23°58' W 046°17'0 0.0
2015-May-22 16:31S 23°58' W 046°17'0 0.0
2015-May-22 15:28S 23°58' W 046°17'0 0.0
2015-May-22 14:28S 23°58' W 046°17'0 0.0
2015-May-22 13:31S 23°58' W 046°17'0 0.0
2015-May-22 12:31S 23°58' W 046°17'0 0.0
2015-May-22 11:25S 23°58' W 046°17'0 0.0
2015-May-22 10:31S 23°58' W 046°17'0 0.0
2015-May-22 09:31S 23°58' W 046°17'0 0.0
2015-May-22 08:28S 23°58' W 046°17'0 0.0
2015-May-22 07:31S 23°58' W 046°17'0 0.0
2015-May-22 06:28S 23°58' W 046°17'0 0.0
2015-May-22 05:31S 23°58' W 046°17'0 0.0
2015-May-22 04:31S 23°58' W 046°17'0 0.0
2015-May-22 03:31S 23°58' W 046°17'0 0.0
2015-May-22 02:22S 23°58' W 046°17'0 0.0
2015-May-22 01:31S 23°58' W 046°17'0 0.0
2015-May-22 00:31S 23°58' W 046°17'0 0.0
2015-May-21 23:31S 23°58' W 046°17'0 0.0
2015-May-21 22:28S 23°58' W 046°17'0 0.0
2015-May-21 21:31S 23°58' W 046°17'0 0.0
2015-May-21 20:31S 23°58' W 046°17'0 0.0
2015-May-21 19:31S 23°58' W 046°17'0 0.0
2015-May-21 18:31S 23°58' W 046°17'0 0.0
2015-May-21 17:31S 23°58' W 046°17'4 3.7
2015-May-21 16:33S 24°01' W 046°20'4 4.2
2015-May-21 15:31S 24°05' W 046°21'0 0.0
2015-May-21 14:31S 24°05' W 046°21'0 0.1
2015-May-21 13:28S 24°05' W 046°21'0 0.1
2015-May-21 12:28S 24°05' W 046°21'2 2.7
2015-May-21 11:33S 24°07' W 046°22'9 8.9
2015-May-21 10:33S 24°16' W 046°19'6 6.4
2015-May-21 09:33S 24°21' W 046°15'8 8.4
2015-May-21 08:32S 24°23' W 046°06'1110.8
2015-May-21 07:33S 24°21' W 045°55'1211.3
2015-May-21 06:31S 24°18' W 045°42'  

Dump ship's entire track history